createdAt,value
2022-12-31T00:01:56.220Z,99900.56
2022-12-31T00:04:57.837Z,99905.28
2022-12-31T00:07:59.544Z,99912.72
2022-12-31T00:11:01.094Z,99917.28
2022-12-31T00:14:03.505Z,99911.25
2022-12-31T00:17:05.118Z,99917.69
2022-12-31T00:20:07.331Z,99917.69
2022-12-31T00:23:10.582Z,99923.84
2022-12-31T00:26:14.560Z,99916.81
2022-12-31T00:29:16.113Z,99918.66
2022-12-31T00:32:17.802Z,99917.81
2022-12-31T00:35:19.350Z,99925.81
2022-12-31T00:38:20.905Z,99932.81
2022-12-31T00:41:23.929Z,99930.03
2022-12-31T00:44:25.595Z,99936.22
2022-12-31T00:47:27.242Z,99943.22
2022-12-31T00:50:28.795Z,99950.25
2022-12-31T00:53:30.508Z,99944.94
2022-12-31T00:56:32.110Z,99943.94
2022-12-31T00:59:33.657Z,99936.78
2022-12-31T01:02:35.623Z,99936.69
2022-12-31T01:05:37.514Z,99930.50
2022-12-31T01:08:39.070Z,99944.69
2022-12-31T01:11:41.005Z,99949.00
2022-12-31T01:14:42.803Z,99947.34
2022-12-31T01:17:44.345Z,99945.38
2022-12-31T01:20:45.907Z,99947.91
2022-12-31T01:23:47.924Z,99944.41
2022-12-31T01:26:50.910Z,99955.06
2022-12-31T01:29:52.488Z,99955.06
2022-12-31T01:32:54.018Z,99952.38
2022-12-31T01:35:55.581Z,99956.91
2022-12-31T01:38:59.610Z,99957.84
2022-12-31T01:42:01.178Z,99952.66
2022-12-31T01:45:03.022Z,99950.25
2022-12-31T01:48:04.876Z,99953.16
2022-12-31T01:51:09.073Z,99960.28
2022-12-31T01:54:15.070Z,99962.09
2022-12-31T01:57:17.711Z,99964.78
2022-12-31T02:00:19.914Z,99973.75
2022-12-31T02:03:23.416Z,99972.03
2022-12-31T02:06:33.323Z,99950.75
2022-12-31T02:09:38.904Z,99965.06
2022-12-31T02:12:40.852Z,99955.34
2022-12-31T02:16:00.430Z,99957.16
2022-12-31T02:19:04.959Z,99960.91
2022-12-31T02:22:17.311Z,99969.75
2022-12-31T02:25:40.123Z,99971.56
2022-12-31T02:28:50.380Z,99972.56
2022-12-31T02:32:00.817Z,99970.84
2022-12-31T02:35:14.492Z,99964.69
2022-12-31T02:38:22.413Z,99954.16
2022-12-31T02:41:42.794Z,99977.28
2022-12-31T02:44:44.366Z,99980.78
2022-12-31T02:48:05.825Z,99961.16
2022-12-31T02:51:10.131Z,99965.66
2022-12-31T02:54:28.517Z,99963.97
2022-12-31T02:57:36.289Z,99967.47
2022-12-31T03:01:03.179Z,99967.47
2022-12-31T03:04:25.514Z,99984.31
2022-12-31T03:07:28.934Z,99962.16
2022-12-31T03:10:30.496Z,99958.50
2022-12-31T03:13:32.057Z,99945.19
2022-12-31T03:16:35.042Z,99939.84
2022-12-31T03:19:55.080Z,99940.84
2022-12-31T03:22:56.579Z,99934.66
2022-12-31T03:25:59.166Z,99943.50
2022-12-31T03:29:00.712Z,99941.81
2022-12-31T03:32:02.312Z,99947.13
2022-12-31T03:35:04.957Z,99946.19
2022-12-31T03:38:06.902Z,99946.19
2022-12-31T03:41:11.242Z,99955.84
2022-12-31T03:44:12.748Z,99950.66
2022-12-31T03:47:14.326Z,99955.97
2022-12-31T03:50:18.187Z,99963.81
2022-12-31T03:53:19.751Z,99961.31
2022-12-31T03:56:21.346Z,99955.13
2022-12-31T03:59:22.853Z,99943.66
2022-12-31T04:02:28.572Z,99937.47
2022-12-31T04:05:31.312Z,99936.47
2022-12-31T04:08:32.871Z,99942.81
2022-12-31T04:11:34.458Z,99941.09
2022-12-31T04:14:36.086Z,99930.69
2022-12-31T04:17:37.753Z,99926.34
2022-12-31T04:20:39.282Z,99927.31
2022-12-31T04:23:40.813Z,99930.97
2022-12-31T04:26:44.278Z,99938.94
2022-12-31T04:29:46.112Z,99924.88
2022-12-31T04:32:47.661Z,99934.72
2022-12-31T04:35:49.209Z,99918.75
2022-12-31T04:38:50.758Z,99929.50
2022-12-31T04:41:52.766Z,99930.50
2022-12-31T04:44:54.269Z,99934.97
2022-12-31T04:47:55.813Z,99939.44
2022-12-31T04:50:57.354Z,99940.41
2022-12-31T04:53:59.380Z,99931.81
2022-12-31T04:57:00.893Z,99940.66
2022-12-31T05:00:02.464Z,99953.13
2022-12-31T05:03:04.137Z,99963.88
2022-12-31T05:06:09.112Z,99962.19
2022-12-31T05:09:10.647Z,99980.09
2022-12-31T05:12:12.255Z,99981.03
2022-12-31T05:15:13.841Z,99983.09
2022-12-31T05:18:15.456Z,99982.38
2022-12-31T05:21:21.111Z,99995.69
2022-12-31T05:24:22.843Z,99992.31
2022-12-31T05:27:24.557Z,100001.28
2022-12-31T05:30:26.221Z,99993.53
2022-12-31T05:33:27.869Z,99978.66
2022-12-31T05:36:29.382Z,99982.16
2022-12-31T05:39:30.928Z,99990.25
2022-12-31T05:42:32.546Z,99981.53
2022-12-31T05:45:34.154Z,99995.69
2022-12-31T05:48:36.144Z,100000.19
2022-12-31T05:51:37.713Z,100008.28
2022-12-31T05:54:39.285Z,99999.44
2022-12-31T05:57:41.075Z,100005.72
2022-12-31T06:00:43.069Z,99995.22
2022-12-31T06:03:44.716Z,99995.09
2022-12-31T06:06:46.313Z,99986.38
2022-12-31T06:09:47.886Z,99980.22
2022-12-31T06:12:49.417Z,99981.06
2022-12-31T06:15:51.137Z,99969.47
2022-12-31T06:18:53.001Z,99987.81
2022-12-31T06:21:54.561Z,99990.63
2022-12-31T06:24:56.170Z,99991.47
2022-12-31T06:27:57.720Z,99995.94
2022-12-31T06:31:04.775Z,99997.88
2022-12-31T06:34:06.918Z,99985.53
2022-12-31T06:37:08.595Z,99997.16
2022-12-31T06:40:10.818Z,100008.63
2022-12-31T06:43:12.369Z,99996.31
2022-12-31T06:46:16.996Z,100006.94
2022-12-31T06:49:18.709Z,100005.38
2022-12-31T06:52:21.290Z,100010.56
2022-12-31T06:55:23.374Z,100027.53
2022-12-31T06:58:25.237Z,100020.34
2022-12-31T07:01:43.462Z,100011.56
2022-12-31T07:05:06.542Z,100007.19
2022-12-31T07:08:11.409Z,100009.97
2022-12-31T07:11:23.620Z,100026.03
2022-12-31T07:14:36.074Z,100026.03
2022-12-31T07:17:54.969Z,100034.16
2022-12-31T07:20:56.771Z,100046.59
2022-12-31T07:23:58.588Z,100050.97
2022-12-31T07:27:00.079Z,100058.59
2022-12-31T07:30:03.975Z,100051.56
2022-12-31T07:33:45.832Z,100035.75
2022-12-31T07:37:07.895Z,100040.44
2022-12-31T07:40:29.117Z,100041.66
2022-12-31T07:44:06.346Z,100041.91
2022-12-31T07:47:26.729Z,100036.22
2022-12-31T07:50:29.958Z,100048.06
2022-12-31T07:53:31.789Z,100050.00
2022-12-31T07:56:33.499Z,100033.06
2022-12-31T07:59:37.924Z,100035.59
2022-12-31T08:03:17.463Z,100043.00
2022-12-31T08:06:37.685Z,100057.22
2022-12-31T08:09:59.763Z,100051.91
2022-12-31T08:13:04.031Z,100043.44
2022-12-31T08:16:11.510Z,100037.78
2022-12-31T08:19:26.284Z,100041.91
2022-12-31T08:23:08.994Z,100047.72
2022-12-31T08:26:13.626Z,100034.28
2022-12-31T08:29:24.163Z,100041.66
2022-12-31T08:32:40.234Z,100041.53
2022-12-31T08:36:00.329Z,100036.72
2022-12-31T08:39:22.101Z,100045.31
2022-12-31T08:42:44.093Z,100053.91
2022-12-31T08:45:49.375Z,100027.75
2022-12-31T08:48:51.082Z,100044.06
2022-12-31T08:51:53.082Z,100025.69
2022-12-31T08:54:54.977Z,100024.97
2022-12-31T08:58:15.915Z,100022.44
2022-12-31T09:01:22.238Z,100027.03
2022-12-31T09:04:33.025Z,100034.31
2022-12-31T09:07:39.407Z,100039.72
2022-12-31T09:11:04.177Z,100046.03
2022-12-31T09:14:24.571Z,100047.84
2022-12-31T09:17:36.059Z,100048.78
2022-12-31T09:20:43.317Z,100047.13
2022-12-31T09:23:46.123Z,100040.94
2022-12-31T09:27:27.529Z,100060.53
2022-12-31T09:30:38.261Z,100056.06
2022-12-31T09:33:57.226Z,100057.88
2022-12-31T09:37:16.468Z,100058.59
2022-12-31T09:40:56.470Z,100060.69
2022-12-31T09:44:48.290Z,100055.97
2022-12-31T09:48:02.054Z,100050.31
2022-12-31T09:51:09.558Z,100048.22
2022-12-31T09:54:30.011Z,100053.19
2022-12-31T09:57:43.133Z,100049.31
2022-12-31T10:00:51.669Z,100053.28
2022-12-31T10:04:09.603Z,100053.03
2022-12-31T10:07:11.153Z,100052.66
2022-12-31T10:10:22.874Z,100046.16
2022-12-31T10:13:33.264Z,100045.91
2022-12-31T10:16:53.349Z,100050.97
2022-12-31T10:20:10.041Z,100046.25
2022-12-31T10:23:20.363Z,100045.16
2022-12-31T10:26:53.028Z,100047.56
2022-12-31T10:29:57.820Z,100039.31
2022-12-31T10:33:36.982Z,100026.72
2022-12-31T10:37:06.494Z,100036.28
2022-12-31T10:40:25.490Z,100053.84
2022-12-31T10:43:51.946Z,100057.09
2022-12-31T10:47:32.565Z,100075.63
2022-12-31T10:50:47.734Z,100076.34
2022-12-31T10:54:05.670Z,100065.44
2022-12-31T10:57:25.510Z,100062.50
2022-12-31T11:00:30.995Z,100079.97
2022-12-31T11:03:38.666Z,100074.38
2022-12-31T11:07:01.780Z,100071.34
2022-12-31T11:10:09.470Z,100068.38
2022-12-31T11:13:38.977Z,100090.31
2022-12-31T11:17:04.968Z,100075.75
2022-12-31T11:20:15.785Z,100077.22
2022-12-31T11:23:29.425Z,100088.34
2022-12-31T11:26:49.407Z,100093.44
2022-12-31T11:30:04.799Z,100070.00
2022-12-31T11:33:06.297Z,100072.44
2022-12-31T11:36:26.325Z,100055.34
2022-12-31T11:39:36.611Z,100062.09
2022-12-31T11:43:10.247Z,100060.91
2022-12-31T11:46:14.884Z,100041.94
2022-12-31T11:49:26.476Z,100055.72
2022-12-31T11:52:52.887Z,100050.13
2022-12-31T11:56:06.600Z,100033.88
2022-12-31T11:59:18.598Z,100048.78
2022-12-31T12:02:32.555Z,100060.88
2022-12-31T12:05:35.605Z,100042.94
2022-12-31T12:08:37.881Z,100054.31
2022-12-31T12:11:40.954Z,100045.22
2022-12-31T12:14:45.403Z,100039.59
2022-12-31T12:17:53.287Z,100051.81
2022-12-31T12:21:13.394Z,100047.06
2022-12-31T12:24:25.244Z,100056.66
2022-12-31T12:27:32.532Z,100060.03
2022-12-31T12:30:38.486Z,100056.50
2022-12-31T12:33:46.125Z,100061.72
2022-12-31T12:36:47.969Z,100062.56
2022-12-31T12:40:01.558Z,100058.91
2022-12-31T12:43:03.616Z,100064.25
2022-12-31T12:46:18.204Z,100065.09
2022-12-31T12:49:26.438Z,100050.91
2022-12-31T12:52:59.897Z,100050.91
2022-12-31T12:56:01.433Z,100056.38
2022-12-31T12:59:15.864Z,100051.03
2022-12-31T13:02:42.665Z,100049.09
2022-12-31T13:06:23.071Z,100052.59
2022-12-31T13:09:33.724Z,100048.94
2022-12-31T13:13:25.935Z,100055.03
2022-12-31T13:16:50.689Z,100054.03
2022-12-31T13:20:13.012Z,100060.06
2022-12-31T13:23:14.574Z,100048.44
2022-12-31T13:26:34.445Z,100064.19
2022-12-31T13:29:37.725Z,100045.50
2022-12-31T13:32:43.399Z,100048.72
2022-12-31T13:35:53.322Z,100065.59
2022-12-31T13:38:59.406Z,100057.44
2022-12-31T13:42:14.635Z,100068.88
2022-12-31T13:45:26.942Z,100066.06
2022-12-31T13:48:36.131Z,100062.25
2022-12-31T13:51:45.028Z,100068.31
2022-12-31T13:54:58.398Z,100054.00
2022-12-31T13:58:27.887Z,100075.91
2022-12-31T14:02:04.592Z,100068.66
2022-12-31T14:05:12.219Z,100068.66
2022-12-31T14:08:14.026Z,100076.38
2022-12-31T14:11:46.670Z,100080.59
2022-12-31T14:15:03.447Z,100074.44
2022-12-31T14:18:15.712Z,100093.13
2022-12-31T14:21:28.756Z,100096.75
2022-12-31T14:24:49.740Z,100097.72
2022-12-31T14:27:54.497Z,100110.25
2022-12-31T14:31:08.975Z,100097.03
2022-12-31T14:34:16.458Z,100111.50
2022-12-31T14:37:31.111Z,100115.97
2022-12-31T14:41:11.791Z,100098.41
2022-12-31T14:44:38.779Z,100125.25
2022-12-31T14:47:57.132Z,100125.50
2022-12-31T14:51:02.270Z,100151.34
2022-12-31T14:54:04.093Z,100169.34
2022-12-31T14:57:17.912Z,100152.59
2022-12-31T15:00:24.823Z,100178.44
2022-12-31T15:03:42.933Z,100175.94
2022-12-31T15:07:16.891Z,100165.34
2022-12-31T15:10:43.479Z,100173.66
2022-12-31T15:14:06.621Z,100172.94
2022-12-31T15:17:11.251Z,100180.22
2022-12-31T15:20:30.773Z,100186.00
2022-12-31T15:23:43.845Z,100193.44
2022-12-31T15:26:52.597Z,100184.84
2022-12-31T15:29:54.300Z,100181.56
2022-12-31T15:32:59.074Z,100180.00
2022-12-31T15:36:13.674Z,100175.06
2022-12-31T15:39:15.485Z,100183.34
2022-12-31T15:42:39.930Z,100195.97
2022-12-31T15:45:43.650Z,100189.91
2022-12-31T15:48:52.617Z,100199.03
2022-12-31T15:52:01.350Z,100204.63
2022-12-31T15:55:05.726Z,100202.94
2022-12-31T15:58:21.121Z,100217.41
2022-12-31T16:01:31.343Z,100202.50
2022-12-31T16:04:33.738Z,100198.97
2022-12-31T16:07:35.629Z,100192.16
2022-12-31T16:10:37.218Z,100178.81
2022-12-31T16:13:48.612Z,100180.38
2022-12-31T16:16:56.461Z,100181.38
2022-12-31T16:20:00.482Z,100181.25
2022-12-31T16:23:03.502Z,100169.84
2022-12-31T16:26:05.761Z,100166.34
2022-12-31T16:29:13.570Z,100173.38
2022-12-31T16:32:17.726Z,100184.63
2022-12-31T16:35:25.957Z,100174.69
2022-12-31T16:38:32.824Z,100189.59
2022-12-31T16:41:43.728Z,100182.06
2022-12-31T16:44:46.828Z,100194.28
2022-12-31T16:47:49.062Z,100206.53
2022-12-31T16:50:55.904Z,100201.63
2022-12-31T16:53:58.762Z,100195.19
2022-12-31T16:57:00.935Z,100203.78
2022-12-31T17:00:06.948Z,100201.72
2022-12-31T17:03:27.120Z,100186.41
2022-12-31T17:06:32.180Z,100188.09
2022-12-31T17:09:37.097Z,100196.84
2022-12-31T17:13:25.467Z,100203.75
2022-12-31T17:16:06.946Z,100208.94
2022-12-31T17:19:26.249Z,100204.47
2022-12-31T17:22:37.008Z,100196.44
2022-12-31T17:25:39.045Z,100190.97
2022-12-31T17:28:47.425Z,100202.50
2022-12-31T17:32:00.661Z,100207.69
2022-12-31T17:35:03.026Z,100187.19
2022-12-31T17:38:23.133Z,100184.66
2022-12-31T17:41:27.279Z,100184.66
2022-12-31T17:44:29.371Z,100181.28
2022-12-31T17:47:36.366Z,100170.59
2022-12-31T17:50:50.276Z,100185.63
2022-12-31T17:53:51.812Z,100179.41
2022-12-31T17:56:53.883Z,100173.25
2022-12-31T17:59:56.017Z,100174.94
2022-12-31T18:02:57.580Z,100186.22
2022-12-31T18:05:59.166Z,100176.25
2022-12-31T18:09:00.712Z,100169.78
2022-12-31T18:12:05.165Z,100172.44
2022-12-31T18:15:07.557Z,100173.31
2022-12-31T18:18:18.147Z,100171.47
2022-12-31T18:21:29.665Z,100164.78
2022-12-31T18:24:31.230Z,100164.38
2022-12-31T18:27:34.850Z,100167.91
2022-12-31T18:30:36.473Z,100151.88
2022-12-31T18:33:38.053Z,100164.38
2022-12-31T18:36:39.724Z,100159.03
2022-12-31T18:39:41.424Z,100149.09
2022-12-31T18:42:43.050Z,100144.72
2022-12-31T18:45:46.124Z,100142.03
2022-12-31T18:48:47.712Z,100145.66
2022-12-31T18:51:54.019Z,100167.03
2022-12-31T18:54:55.571Z,100162.69
2022-12-31T18:57:57.136Z,100176.06
2022-12-31T19:00:58.808Z,100168.03
2022-12-31T19:04:03.320Z,100159.19
2022-12-31T19:07:04.903Z,100153.69
2022-12-31T19:10:06.714Z,100157.91
2022-12-31T19:13:12.998Z,100162.16
2022-12-31T19:16:14.742Z,100170.16
2022-12-31T19:19:17.063Z,100147.97
2022-12-31T19:22:18.563Z,100154.13
2022-12-31T19:25:25.739Z,100155.84
2022-12-31T19:28:28.417Z,100155.56
2022-12-31T19:31:29.983Z,100149.53
2022-12-31T19:34:31.579Z,100141.63
2022-12-31T19:37:33.082Z,100143.44
2022-12-31T19:40:34.623Z,100143.59
2022-12-31T19:43:36.145Z,100147.38
2022-12-31T19:46:37.711Z,100157.22
2022-12-31T19:49:39.225Z,100156.34
2022-12-31T19:52:41.027Z,100160.72
2022-12-31T19:55:42.917Z,100162.44
2022-12-31T19:58:45.117Z,100168.50
2022-12-31T20:01:46.754Z,100168.50
2022-12-31T20:04:48.405Z,100165.81
2022-12-31T20:07:50.046Z,100159.47
2022-12-31T20:10:51.583Z,100162.03
2022-12-31T20:13:54.110Z,100170.06
2022-12-31T20:16:56.309Z,100184.97
2022-12-31T20:19:57.937Z,100169.66
2022-12-31T20:22:59.470Z,100170.34
2022-12-31T20:26:01.807Z,100161.38
2022-12-31T20:29:03.416Z,100172.75
2022-12-31T20:32:05.231Z,100175.44
2022-12-31T20:35:07.220Z,100173.63
2022-12-31T20:38:09.055Z,100173.47
2022-12-31T20:41:14.564Z,100180.38
2022-12-31T20:44:16.141Z,100173.34
2022-12-31T20:47:17.676Z,100177.56
2022-12-31T20:50:19.316Z,100172.94
2022-12-31T20:53:20.935Z,100164.78
2022-12-31T20:56:23.955Z,100169.16
2022-12-31T20:59:25.786Z,100157.34
2022-12-31T21:02:40.676Z,100135.81
2022-12-31T21:05:54.753Z,100148.06
2022-12-31T21:08:58.495Z,100161.28
2022-12-31T21:12:19.221Z,100171.88
2022-12-31T21:15:21.589Z,100174.53
2022-12-31T21:18:23.534Z,100181.56
2022-12-31T21:21:25.072Z,100188.47
2022-12-31T21:24:26.646Z,100199.16
2022-12-31T21:27:31.536Z,100199.91
2022-12-31T21:30:33.314Z,100201.56
2022-12-31T21:33:35.237Z,100188.91
2022-12-31T21:36:36.924Z,100205.81
2022-12-31T21:39:38.475Z,100212.97
2022-12-31T21:42:39.996Z,100213.97
2022-12-31T21:45:41.910Z,100214.09
2022-12-31T21:48:43.409Z,100211.41
2022-12-31T21:52:03.345Z,100213.13
2022-12-31T21:55:24.216Z,100204.94
2022-12-31T21:58:27.544Z,100206.81
2022-12-31T22:01:48.270Z,100212.16
2022-12-31T22:05:14.073Z,100204.94
2022-12-31T22:08:11.436Z,100208.47
2022-12-31T22:11:14.223Z,100212.84
2022-12-31T22:14:15.803Z,100212.69
2022-12-31T22:17:17.464Z,100211.84
2022-12-31T22:20:28.120Z,100218.19
2022-12-31T22:23:31.204Z,100211.16
2022-12-31T22:26:32.810Z,100209.47
2022-12-31T22:29:34.364Z,100225.50
2022-12-31T22:32:36.885Z,100222.84
2022-12-31T22:35:38.477Z,100234.25
2022-12-31T22:38:40.251Z,100229.50
2022-12-31T22:41:41.978Z,100229.94
2022-12-31T22:44:43.548Z,100239.66
2022-12-31T22:47:45.081Z,100231.78
2022-12-31T22:50:54.956Z,100240.63
2022-12-31T22:53:56.578Z,100234.56
2022-12-31T22:56:58.190Z,100235.56
2022-12-31T22:59:59.719Z,100239.22
2022-12-31T23:03:01.331Z,100248.22
2022-12-31T23:06:02.982Z,100243.84
2022-12-31T23:09:23.077Z,100241.19
2022-12-31T23:12:24.701Z,100243.84
2022-12-31T23:15:44.671Z,100241.19
2022-12-31T23:19:05.699Z,100255.53
2022-12-31T23:22:25.724Z,100232.47
2022-12-31T23:25:27.341Z,100257.34
2022-12-31T23:28:28.945Z,100253.97
2022-12-31T23:31:30.619Z,100256.53
2022-12-31T23:34:32.706Z,100262.84
2022-12-31T23:37:34.287Z,100247.75
2022-12-31T23:40:35.899Z,100278.88
2022-12-31T23:43:37.469Z,100264.66
2022-12-31T23:46:39.903Z,100268.34
2022-12-31T23:49:41.523Z,100262.13
2022-12-31T23:52:43.037Z,100264.97
2022-12-31T23:55:44.617Z,100262.41
2022-12-31T23:58:46.261Z,100265.34
